createdAt,value
2023-08-27T00:00:25.721Z,973.57
2023-08-27T00:12:26.190Z,973.63
2023-08-27T00:24:26.738Z,973.60
2023-08-27T00:36:27.118Z,973.74
2023-08-27T00:48:27.581Z,973.46
2023-08-27T01:00:28.011Z,973.47
2023-08-27T01:12:28.507Z,973.31
2023-08-27T01:24:28.922Z,973.40
2023-08-27T01:36:29.381Z,973.42
2023-08-27T01:48:29.866Z,973.46
2023-08-27T02:00:30.337Z,973.56
2023-08-27T02:12:30.753Z,973.45
2023-08-27T02:24:31.193Z,973.62
2023-08-27T02:36:31.650Z,973.70
2023-08-27T02:48:32.161Z,973.74
2023-08-27T03:00:32.609Z,973.62
2023-08-27T03:12:33.042Z,973.41
2023-08-27T03:24:33.501Z,973.34
2023-08-27T03:36:33.981Z,973.45
2023-08-27T03:48:34.371Z,973.65
2023-08-27T04:00:34.829Z,973.72
2023-08-27T04:12:37.497Z,973.81
2023-08-27T04:24:35.822Z,973.77
2023-08-27T04:36:36.193Z,973.66
2023-08-27T04:48:36.653Z,973.47
2023-08-27T05:00:37.129Z,973.41
2023-08-27T05:12:37.640Z,973.44
2023-08-27T05:24:38.028Z,973.25
2023-08-27T05:36:38.514Z,973.08
2023-08-27T05:48:38.939Z,973.18
2023-08-27T06:00:39.402Z,973.21
2023-08-27T06:12:39.865Z,973.14
2023-08-27T06:24:40.352Z,973.11
2023-08-27T06:36:40.750Z,972.88
2023-08-27T06:48:41.274Z,972.73
2023-08-27T07:00:41.685Z,972.63
2023-08-27T07:12:42.127Z,972.43
2023-08-27T07:24:42.584Z,972.36
2023-08-27T07:36:43.046Z,972.23
2023-08-27T07:48:43.494Z,972.21
2023-08-27T08:00:43.981Z,972.42
2023-08-27T08:12:44.388Z,972.18
2023-08-27T08:24:44.861Z,971.94
2023-08-27T08:36:45.334Z,971.93
2023-08-27T08:48:45.756Z,971.71
2023-08-27T09:00:46.228Z,971.62
2023-08-27T09:12:46.690Z,971.55
2023-08-27T09:24:47.132Z,971.52
2023-08-27T09:36:47.630Z,971.57
2023-08-27T09:48:48.075Z,971.45
2023-08-27T10:00:48.503Z,971.44
2023-08-27T10:12:48.978Z,971.40
2023-08-27T10:24:49.424Z,971.31
2023-08-27T10:36:49.869Z,971.22
2023-08-27T10:48:50.364Z,971.04
2023-08-27T11:00:50.848Z,971.01
2023-08-27T11:12:51.229Z,971.09
2023-08-27T11:24:51.707Z,970.94
2023-08-27T11:36:52.212Z,970.87
2023-08-27T11:48:52.603Z,970.95
2023-08-27T12:00:54.231Z,970.87
2023-08-27T12:12:53.564Z,970.75
2023-08-27T12:24:54.030Z,970.52
2023-08-27T12:36:54.492Z,970.42
2023-08-27T12:48:54.937Z,970.41
2023-08-27T13:00:55.347Z,970.20
2023-08-27T13:12:55.818Z,970.06
2023-08-27T13:24:56.260Z,969.94
2023-08-27T13:36:56.814Z,970.04
2023-08-27T13:48:57.187Z,969.95
2023-08-27T14:00:57.673Z,970.02
2023-08-27T14:12:58.102Z,969.90
2023-08-27T14:24:58.552Z,969.83
2023-08-27T14:36:59.058Z,969.76
2023-08-27T14:48:59.480Z,969.68
2023-08-27T15:00:59.978Z,969.62
2023-08-27T15:13:00.386Z,969.57
2023-08-27T15:25:00.845Z,969.65
2023-08-27T15:37:01.314Z,969.51
2023-08-27T15:49:01.780Z,969.61
2023-08-27T16:01:02.284Z,969.46
2023-08-27T16:13:02.702Z,969.34
2023-08-27T16:25:03.170Z,969.39
2023-08-27T16:37:03.617Z,969.34
2023-08-27T16:49:04.073Z,969.45
2023-08-27T17:01:04.497Z,969.50
2023-08-27T17:13:05.007Z,969.74
2023-08-27T17:25:05.425Z,969.82
2023-08-27T17:37:05.874Z,969.91
2023-08-27T17:49:06.336Z,970.13
2023-08-27T18:01:06.852Z,970.57
2023-08-27T18:13:07.271Z,970.66
2023-08-27T18:25:07.717Z,971.09
2023-08-27T18:37:08.159Z,971.14
2023-08-27T18:49:08.672Z,971.22
2023-08-27T19:01:09.130Z,971.28
2023-08-27T19:13:09.527Z,971.21
2023-08-27T19:25:10.029Z,971.33
2023-08-27T19:37:10.451Z,971.34
2023-08-27T19:49:10.915Z,971.46
2023-08-27T20:01:11.339Z,971.52
2023-08-27T20:13:11.856Z,971.75
2023-08-27T20:25:12.301Z,971.65
2023-08-27T20:37:12.716Z,971.77
2023-08-27T20:49:13.240Z,971.87
2023-08-27T21:01:13.705Z,971.93
2023-08-27T21:13:14.101Z,971.82
2023-08-27T21:25:14.540Z,971.97
2023-08-27T21:37:15.993Z,971.90
2023-08-27T21:49:15.432Z,972.10
2023-08-27T22:01:16.108Z,972.17
2023-08-27T22:13:16.349Z,972.06
2023-08-27T22:25:16.820Z,972.30
2023-08-27T22:37:17.258Z,972.10
2023-08-27T22:49:17.781Z,972.27
2023-08-27T23:01:18.253Z,972.28
2023-08-27T23:13:18.691Z,972.35
2023-08-27T23:25:19.111Z,972.13
2023-08-27T23:37:19.579Z,972.15
2023-08-27T23:49:19.982Z,972.21
